sensor_id;sensor_type;location;lat;lon;timestamp;temperature;humidity
27534;DHT22;14973;51.460;7.008;2022-09-03T00:02:15;17.20;96.90
27534;DHT22;14973;51.460;7.008;2022-09-03T00:04:50;17.40;96.60
27534;DHT22;14973;51.460;7.008;2022-09-03T00:07:19;17.40;96.50
27534;DHT22;14973;51.460;7.008;2022-09-03T00:09:49;17.60;96.30
27534;DHT22;14973;51.460;7.008;2022-09-03T00:12:22;17.60;96.10
27534;DHT22;14973;51.460;7.008;2022-09-03T00:14:50;17.60;96.00
27534;DHT22;14973;51.460;7.008;2022-09-03T00:17:18;17.70;96.10
27534;DHT22;14973;51.460;7.008;2022-09-03T00:19:54;17.60;96.20
27534;DHT22;14973;51.460;7.008;2022-09-03T00:22:22;17.60;96.50
27534;DHT22;14973;51.460;7.008;2022-09-03T00:24:48;17.60;96.40
27534;DHT22;14973;51.460;7.008;2022-09-03T00:27:16;17.60;96.00
27534;DHT22;14973;51.460;7.008;2022-09-03T00:32:33;17.60;96.10
27534;DHT22;14973;51.460;7.008;2022-09-03T00:35:02;17.60;96.10
27534;DHT22;14973;51.460;7.008;2022-09-03T00:37:28;17.50;96.10
27534;DHT22;14973;51.460;7.008;2022-09-03T00:39:54;17.60;96.40
27534;DHT22;14973;51.460;7.008;2022-09-03T00:45:16;17.60;95.90
27534;DHT22;14973;51.460;7.008;2022-09-03T00:50:28;17.60;96.00
27534;DHT22;14973;51.460;7.008;2022-09-03T00:55:34;17.40;96.20
27534;DHT22;14973;51.460;7.008;2022-09-03T00:58:17;17.40;96.20
27534;DHT22;14973;51.460;7.008;2022-09-03T01:00:45;17.40;96.20
27534;DHT22;14973;51.460;7.008;2022-09-03T01:11:06;17.40;96.40
27534;DHT22;14973;51.460;7.008;2022-09-03T01:13:35;17.40;96.30
27534;DHT22;14973;51.460;7.008;2022-09-03T01:18:38;17.40;96.30
27534;DHT22;14973;51.460;7.008;2022-09-03T01:21:16;17.40;96.30
27534;DHT22;14973;51.460;7.008;2022-09-03T01:23:52;17.40;96.20
27534;DHT22;14973;51.460;7.008;2022-09-03T01:29:01;17.30;96.40
27534;DHT22;14973;51.460;7.008;2022-09-03T01:36:47;17.20;96.60
27534;DHT22;14973;51.460;7.008;2022-09-03T01:39:59;17.30;96.70
27534;DHT22;14973;51.460;7.008;2022-09-03T01:50:09;17.20;96.80
27534;DHT22;14973;51.460;7.008;2022-09-03T01:55:31;17.30;96.70
27534;DHT22;14973;51.460;7.008;2022-09-03T01:58:11;17.20;96.70
27534;DHT22;14973;51.460;7.008;2022-09-03T02:00:39;17.20;96.90
27534;DHT22;14973;51.460;7.008;2022-09-03T02:03:05;17.10;97.00
27534;DHT22;14973;51.460;7.008;2022-09-03T02:05:32;17.20;97.00
27534;DHT22;14973;51.460;7.008;2022-09-03T02:08:00;17.20;97.00
27534;DHT22;14973;51.460;7.008;2022-09-03T02:13:01;17.10;97.20
27534;DHT22;14973;51.460;7.008;2022-09-03T02:15:28;17.10;97.20
27534;DHT22;14973;51.460;7.008;2022-09-03T02:17:57;17.10;97.20
27534;DHT22;14973;51.460;7.008;2022-09-03T02:20:26;17.00;97.40
27534;DHT22;14973;51.460;7.008;2022-09-03T02:22:52;17.10;97.20
27534;DHT22;14973;51.460;7.008;2022-09-03T02:25:18;17.10;97.20
27534;DHT22;14973;51.460;7.008;2022-09-03T02:27:46;17.10;97.30
27534;DHT22;14973;51.460;7.008;2022-09-03T02:30:12;17.10;97.30
27534;DHT22;14973;51.460;7.008;2022-09-03T02:32:38;17.00;97.50
27534;DHT22;14973;51.460;7.008;2022-09-03T02:35:03;17.00;97.60
27534;DHT22;14973;51.460;7.008;2022-09-03T02:37:29;17.00;97.50
27534;DHT22;14973;51.460;7.008;2022-09-03T02:39:54;17.00;97.60
27534;DHT22;14973;51.460;7.008;2022-09-03T02:42:20;17.00;97.70
27534;DHT22;14973;51.460;7.008;2022-09-03T02:44:51;16.80;97.90
27534;DHT22;14973;51.460;7.008;2022-09-03T02:47:17;16.80;98.10
27534;DHT22;14973;51.460;7.008;2022-09-03T02:49:48;16.70;98.40
27534;DHT22;14973;51.460;7.008;2022-09-03T02:52:14;16.60;98.80
27534;DHT22;14973;51.460;7.008;2022-09-03T02:54:40;16.40;99.10
27534;DHT22;14973;51.460;7.008;2022-09-03T02:57:06;16.30;99.70
27534;DHT22;14973;51.460;7.008;2022-09-03T02:59:32;16.10;99.90
27534;DHT22;14973;51.460;7.008;2022-09-03T03:01:57;16.00;99.90
27534;DHT22;14973;51.460;7.008;2022-09-03T03:04:23;15.80;99.90
27534;DHT22;14973;51.460;7.008;2022-09-03T03:06:48;15.60;99.90
27534;DHT22;14973;51.460;7.008;2022-09-03T03:09:18;15.60;99.90
27534;DHT22;14973;51.460;7.008;2022-09-03T03:11:43;15.50;99.90
27534;DHT22;14973;51.460;7.008;2022-09-03T03:14:09;15.40;99.90
27534;DHT22;14973;51.460;7.008;2022-09-03T03:16:35;15.40;99.90
27534;DHT22;14973;51.460;7.008;2022-09-03T03:19:00;15.30;99.90
27534;DHT22;14973;51.460;7.008;2022-09-03T03:21:26;15.20;99.90
27534;DHT22;14973;51.460;7.008;2022-09-03T03:23:52;15.20;99.90
27534;DHT22;14973;51.460;7.008;2022-09-03T03:26:18;15.20;99.90
27534;DHT22;14973;51.460;7.008;2022-09-03T03:28:44;15.10;99.90
27534;DHT22;14973;51.460;7.008;2022-09-03T03:31:20;15.00;99.90
27534;DHT22;14973;51.460;7.008;2022-09-03T03:33:53;14.90;99.90
27534;DHT22;14973;51.460;7.008;2022-09-03T03:36:19;14.90;99.90
27534;DHT22;14973;51.460;7.008;2022-09-03T03:38:45;14.90;99.90
27534;DHT22;14973;51.460;7.008;2022-09-03T03:41:15;14.80;99.90
27534;DHT22;14973;51.460;7.008;2022-09-03T03:43:41;14.80;99.90
27534;DHT22;14973;51.460;7.008;2022-09-03T03:46:07;14.90;99.90
27534;DHT22;14973;51.460;7.008;2022-09-03T03:48:34;14.90;99.90
27534;DHT22;14973;51.460;7.008;2022-09-03T03:51:00;14.80;99.90
27534;DHT22;14973;51.460;7.008;2022-09-03T03:53:28;14.80;99.90
27534;DHT22;14973;51.460;7.008;2022-09-03T03:55:58;14.70;99.90
27534;DHT22;14973;51.460;7.008;2022-09-03T03:58:24;14.70;99.90
27534;DHT22;14973;51.460;7.008;2022-09-03T04:00:50;14.70;99.90
27534;DHT22;14973;51.460;7.008;2022-09-03T04:03:16;14.70;99.90
27534;DHT22;14973;51.460;7.008;2022-09-03T04:05:41;14.60;99.90
27534;DHT22;14973;51.460;7.008;2022-09-03T04:08:07;14.60;99.90
27534;DHT22;14973;51.460;7.008;2022-09-03T04:10:33;14.60;99.90
27534;DHT22;14973;51.460;7.008;2022-09-03T04:12:58;14.50;99.90
27534;DHT22;14973;51.460;7.008;2022-09-03T04:15:25;14.50;99.90
27534;DHT22;14973;51.460;7.008;2022-09-03T04:17:53;14.40;99.90
27534;DHT22;14973;51.460;7.008;2022-09-03T04:20:19;14.50;99.90
27534;DHT22;14973;51.460;7.008;2022-09-03T04:22:44;14.50;99.90
27534;DHT22;14973;51.460;7.008;2022-09-03T04:25:10;14.50;99.90
27534;DHT22;14973;51.460;7.008;2022-09-03T04:27:35;14.40;99.90
27534;DHT22;14973;51.460;7.008;2022-09-03T04:30:01;14.40;99.90
27534;DHT22;14973;51.460;7.008;2022-09-03T04:32:26;14.40;99.90
27534;DHT22;14973;51.460;7.008;2022-09-03T04:35:10;14.40;99.90
27534;DHT22;14973;51.460;7.008;2022-09-03T04:37:36;14.40;99.90
27534;DHT22;14973;51.460;7.008;2022-09-03T04:40:02;14.30;99.90
27534;DHT22;14973;51.460;7.008;2022-09-03T04:42:28;14.20;99.90
27534;DHT22;14973;51.460;7.008;2022-09-03T04:44:53;14.20;99.90
27534;DHT22;14973;51.460;7.008;2022-09-03T04:47:19;14.10;99.90
27534;DHT22;14973;51.460;7.008;2022-09-03T04:49:44;14.10;99.90
27534;DHT22;14973;51.460;7.008;2022-09-03T04:52:10;14.10;99.90
27534;DHT22;14973;51.460;7.008;2022-09-03T04:54:36;14.10;99.90
27534;DHT22;14973;51.460;7.008;2022-09-03T04:57:01;14.10;99.90
27534;DHT22;14973;51.460;7.008;2022-09-03T04:59:27;14.10;99.90
27534;DHT22;14973;51.460;7.008;2022-09-03T05:01:52;14.10;99.90
27534;DHT22;14973;51.460;7.008;2022-09-03T05:04:18;14.20;99.90
27534;DHT22;14973;51.460;7.008;2022-09-03T05:06:44;14.20;99.90
27534;DHT22;14973;51.460;7.008;2022-09-03T05:09:10;14.20;99.90
27534;DHT22;14973;51.460;7.008;2022-09-03T05:11:35;14.20;99.90
27534;DHT22;14973;51.460;7.008;2022-09-03T05:14:01;14.20;99.90
27534;DHT22;14973;51.460;7.008;2022-09-03T05:16:27;14.30;99.90
27534;DHT22;14973;51.460;7.008;2022-09-03T05:18:55;14.30;99.90
27534;DHT22;14973;51.460;7.008;2022-09-03T05:21:21;14.30;99.90
27534;DHT22;14973;51.460;7.008;2022-09-03T05:23:48;14.40;99.90
27534;DHT22;14973;51.460;7.008;2022-09-03T05:26:15;14.40;99.90
27534;DHT22;14973;51.460;7.008;2022-09-03T05:28:42;14.40;99.90
27534;DHT22;14973;51.460;7.008;2022-09-03T05:31:09;14.40;99.90
27534;DHT22;14973;51.460;7.008;2022-09-03T05:33:35;14.50;99.90
27534;DHT22;14973;51.460;7.008;2022-09-03T05:36:02;14.60;99.90
27534;DHT22;14973;51.460;7.008;2022-09-03T05:38:27;14.70;99.90
27534;DHT22;14973;51.460;7.008;2022-09-03T05:40:53;14.70;99.90
27534;DHT22;14973;51.460;7.008;2022-09-03T05:43:22;14.80;99.90
27534;DHT22;14973;51.460;7.008;2022-09-03T05:45:47;14.90;99.90
27534;DHT22;14973;51.460;7.008;2022-09-03T05:48:13;15.00;99.90
27534;DHT22;14973;51.460;7.008;2022-09-03T05:50:38;15.10;99.90
27534;DHT22;14973;51.460;7.008;2022-09-03T05:53:04;15.10;99.90
27534;DHT22;14973;51.460;7.008;2022-09-03T05:55:29;15.30;99.90
27534;DHT22;14973;51.460;7.008;2022-09-03T05:57:55;15.40;99.90
27534;DHT22;14973;51.460;7.008;2022-09-03T06:00:20;15.50;99.90
27534;DHT22;14973;51.460;7.008;2022-09-03T06:02:52;15.60;99.90
27534;DHT22;14973;51.460;7.008;2022-09-03T06:05:18;15.70;99.90
27534;DHT22;14973;51.460;7.008;2022-09-03T06:07:44;15.70;99.90
27534;DHT22;14973;51.460;7.008;2022-09-03T06:10:11;15.90;99.90
27534;DHT22;14973;51.460;7.008;2022-09-03T06:12:37;16.10;99.90
27534;DHT22;14973;51.460;7.008;2022-09-03T06:15:03;16.50;99.90
27534;DHT22;14973;51.460;7.008;2022-09-03T06:17:30;16.70;99.90
27534;DHT22;14973;51.460;7.008;2022-09-03T06:19:55;17.00;99.90
27534;DHT22;14973;51.460;7.008;2022-09-03T06:22:21;17.60;99.90
27534;DHT22;14973;51.460;7.008;2022-09-03T06:24:49;19.20;99.90
27534;DHT22;14973;51.460;7.008;2022-09-03T06:27:14;21.30;99.40
27534;DHT22;14973;51.460;7.008;2022-09-03T06:29:40;23.30;94.20
27534;DHT22;14973;51.460;7.008;2022-09-03T06:32:05;25.00;92.00
27534;DHT22;14973;51.460;7.008;2022-09-03T06:34:31;25.90;90.50
27534;DHT22;14973;51.460;7.008;2022-09-03T06:36:57;26.80;87.20
27534;DHT22;14973;51.460;7.008;2022-09-03T06:39:23;28.00;84.60
27534;DHT22;14973;51.460;7.008;2022-09-03T06:41:49;29.00;82.60
27534;DHT22;14973;51.460;7.008;2022-09-03T06:44:16;30.20;79.20
27534;DHT22;14973;51.460;7.008;2022-09-03T06:46:41;30.00;77.70
27534;DHT22;14973;51.460;7.008;2022-09-03T06:49:07;31.00;76.80
27534;DHT22;14973;51.460;7.008;2022-09-03T06:51:33;31.70;74.80
27534;DHT22;14973;51.460;7.008;2022-09-03T06:54:01;31.60;75.00
27534;DHT22;14973;51.460;7.008;2022-09-03T06:56:27;32.60;72.70
27534;DHT22;14973;51.460;7.008;2022-09-03T06:58:54;32.70;72.60
27534;DHT22;14973;51.460;7.008;2022-09-03T07:01:21;33.90;70.60
27534;DHT22;14973;51.460;7.008;2022-09-03T07:03:50;34.90;68.50
27534;DHT22;14973;51.460;7.008;2022-09-03T07:06:17;33.60;69.20
27534;DHT22;14973;51.460;7.008;2022-09-03T07:08:43;33.90;68.80
27534;DHT22;14973;51.460;7.008;2022-09-03T07:11:14;35.20;67.60
27534;DHT22;14973;51.460;7.008;2022-09-03T07:13:41;35.80;66.30
27534;DHT22;14973;51.460;7.008;2022-09-03T07:16:08;34.60;67.80
27534;DHT22;14973;51.460;7.008;2022-09-03T07:18:34;35.50;66.90
27534;DHT22;14973;51.460;7.008;2022-09-03T07:21:00;36.20;64.90
27534;DHT22;14973;51.460;7.008;2022-09-03T07:23:27;36.00;64.50
27534;DHT22;14973;51.460;7.008;2022-09-03T07:25:56;35.20;65.50
27534;DHT22;14973;51.460;7.008;2022-09-03T07:28:23;35.40;64.80
27534;DHT22;14973;51.460;7.008;2022-09-03T07:30:49;35.50;64.90
27534;DHT22;14973;51.460;7.008;2022-09-03T07:33:15;35.40;64.60
27534;DHT22;14973;51.460;7.008;2022-09-03T07:35:40;36.00;64.40
27534;DHT22;14973;51.460;7.008;2022-09-03T07:38:06;34.50;65.60
27534;DHT22;14973;51.460;7.008;2022-09-03T07:40:31;33.30;67.40
27534;DHT22;14973;51.460;7.008;2022-09-03T07:42:57;33.50;67.50
27534;DHT22;14973;51.460;7.008;2022-09-03T07:45:29;34.70;66.60
27534;DHT22;14973;51.460;7.008;2022-09-03T07:47:55;36.20;64.50
27534;DHT22;14973;51.460;7.008;2022-09-03T07:50:20;36.30;63.80
27534;DHT22;14973;51.460;7.008;2022-09-03T07:52:46;36.70;63.50
27534;DHT22;14973;51.460;7.008;2022-09-03T07:55:12;36.90;62.90
27534;DHT22;14973;51.460;7.008;2022-09-03T07:57:38;36.50;62.50
27534;DHT22;14973;51.460;7.008;2022-09-03T08:00:04;36.80;62.00
27534;DHT22;14973;51.460;7.008;2022-09-03T08:02:32;35.80;63.40
27534;DHT22;14973;51.460;7.008;2022-09-03T08:04:57;35.00;64.20
27534;DHT22;14973;51.460;7.008;2022-09-03T08:07:23;35.30;64.30
27534;DHT22;14973;51.460;7.008;2022-09-03T08:09:48;35.70;63.90
27534;DHT22;14973;51.460;7.008;2022-09-03T08:12:15;36.50;62.30
27534;DHT22;14973;51.460;7.008;2022-09-03T08:14:40;36.60;62.50
27534;DHT22;14973;51.460;7.008;2022-09-03T08:17:06;36.50;62.40
27534;DHT22;14973;51.460;7.008;2022-09-03T08:19:32;37.30;61.50
27534;DHT22;14973;51.460;7.008;2022-09-03T08:21:58;37.70;61.00
27534;DHT22;14973;51.460;7.008;2022-09-03T08:24:24;37.70;60.80
27534;DHT22;14973;51.460;7.008;2022-09-03T08:26:50;37.30;61.10
27534;DHT22;14973;51.460;7.008;2022-09-03T08:29:16;37.10;61.60
27534;DHT22;14973;51.460;7.008;2022-09-03T08:31:41;37.30;61.20
27534;DHT22;14973;51.460;7.008;2022-09-03T08:34:08;37.60;60.50
27534;DHT22;14973;51.460;7.008;2022-09-03T08:36:36;37.60;59.80
27534;DHT22;14973;51.460;7.008;2022-09-03T08:39:04;37.50;60.30
27534;DHT22;14973;51.460;7.008;2022-09-03T08:49:12;36.40;61.30
27534;DHT22;14973;51.460;7.008;2022-09-03T08:51:38;37.60;59.10
27534;DHT22;14973;51.460;7.008;2022-09-03T08:54:06;37.50;59.10
27534;DHT22;14973;51.460;7.008;2022-09-03T08:56:33;37.60;59.00
27534;DHT22;14973;51.460;7.008;2022-09-03T08:59:02;37.80;58.60
27534;DHT22;14973;51.460;7.008;2022-09-03T09:01:42;37.40;58.90
27534;DHT22;14973;51.460;7.008;2022-09-03T09:09:15;37.50;58.80
27534;DHT22;14973;51.460;7.008;2022-09-03T09:14:15;36.40;59.60
27534;DHT22;14973;51.460;7.008;2022-09-03T09:21:47;37.40;58.90
27534;DHT22;14973;51.460;7.008;2022-09-03T09:24:23;34.90;60.10
27534;DHT22;14973;51.460;7.008;2022-09-03T09:26:53;34.40;62.50
27534;DHT22;14973;51.460;7.008;2022-09-03T09:29:20;36.30;60.10
27534;DHT22;14973;51.460;7.008;2022-09-03T09:31:45;37.00;59.00
27534;DHT22;14973;51.460;7.008;2022-09-03T09:34:11;37.00;58.90
27534;DHT22;14973;51.460;7.008;2022-09-03T09:36:55;37.20;58.70
27534;DHT22;14973;51.460;7.008;2022-09-03T09:39:21;36.90;58.90
27534;DHT22;14973;51.460;7.008;2022-09-03T09:41:57;35.50;59.70
27534;DHT22;14973;51.460;7.008;2022-09-03T09:44:24;33.40;62.20
27534;DHT22;14973;51.460;7.008;2022-09-03T09:46:49;30.70;66.80
27534;DHT22;14973;51.460;7.008;2022-09-03T09:52:08;29.00;71.40
27534;DHT22;14973;51.460;7.008;2022-09-03T09:54:36;29.50;70.10
27534;DHT22;14973;51.460;7.008;2022-09-03T09:57:06;29.50;70.50
27534;DHT22;14973;51.460;7.008;2022-09-03T09:59:32;29.40;70.70
27534;DHT22;14973;51.460;7.008;2022-09-03T10:02:12;29.50;70.50
27534;DHT22;14973;51.460;7.008;2022-09-03T10:04:38;29.10;70.70
27534;DHT22;14973;51.460;7.008;2022-09-03T10:09:30;28.60;72.30
27534;DHT22;14973;51.460;7.008;2022-09-03T10:14:23;28.50;72.90
27534;DHT22;14973;51.460;7.008;2022-09-03T10:16:53;28.60;72.60
27534;DHT22;14973;51.460;7.008;2022-09-03T10:19:27;28.80;72.30
27534;DHT22;14973;51.460;7.008;2022-09-03T10:22:09;29.00;72.10
27534;DHT22;14973;51.460;7.008;2022-09-03T10:27:11;29.20;71.60
27534;DHT22;14973;51.460;7.008;2022-09-03T10:29:39;29.10;71.80
27534;DHT22;14973;51.460;7.008;2022-09-03T10:37:33;29.10;72.30
27534;DHT22;14973;51.460;7.008;2022-09-03T10:40:21;29.00;71.90
27534;DHT22;14973;51.460;7.008;2022-09-03T10:48:13;29.00;72.90
27534;DHT22;14973;51.460;7.008;2022-09-03T10:55:56;28.30;73.90
27534;DHT22;14973;51.460;7.008;2022-09-03T11:01:03;28.30;74.60
27534;DHT22;14973;51.460;7.008;2022-09-03T11:03:53;28.20;74.90
27534;DHT22;14973;51.460;7.008;2022-09-03T11:06:25;28.30;74.50
27534;DHT22;14973;51.460;7.008;2022-09-03T11:08:54;28.30;74.70
27534;DHT22;14973;51.460;7.008;2022-09-03T11:11:31;28.00;75.10
27534;DHT22;14973;51.460;7.008;2022-09-03T11:16:48;28.20;75.00
27534;DHT22;14973;51.460;7.008;2022-09-03T11:19:13;28.30;74.80
27534;DHT22;14973;51.460;7.008;2022-09-03T11:21:41;28.50;75.80
27534;DHT22;14973;51.460;7.008;2022-09-03T11:24:10;28.50;76.00
27534;DHT22;14973;51.460;7.008;2022-09-03T11:26:38;28.40;76.60
27534;DHT22;14973;51.460;7.008;2022-09-03T11:29:12;28.30;77.50
27534;DHT22;14973;51.460;7.008;2022-09-03T11:36:50;28.10;77.10
27534;DHT22;14973;51.460;7.008;2022-09-03T11:39:21;28.10;77.50
27534;DHT22;14973;51.460;7.008;2022-09-03T11:42:01;28.10;77.80
27534;DHT22;14973;51.460;7.008;2022-09-03T11:44:38;28.20;77.20
27534;DHT22;14973;51.460;7.008;2022-09-03T11:47:20;28.40;77.30
27534;DHT22;14973;51.460;7.008;2022-09-03T11:49:47;28.60;76.70
27534;DHT22;14973;51.460;7.008;2022-09-03T11:52:24;28.60;76.70
27534;DHT22;14973;51.460;7.008;2022-09-03T11:54:50;28.70;75.40
27534;DHT22;14973;51.460;7.008;2022-09-03T11:57:20;28.40;75.50
27534;DHT22;14973;51.460;7.008;2022-09-03T11:59:47;28.30;76.50
27534;DHT22;14973;51.460;7.008;2022-09-03T12:02:26;28.20;76.50
27534;DHT22;14973;51.460;7.008;2022-09-03T12:12:48;28.60;76.40
27534;DHT22;14973;51.460;7.008;2022-09-03T12:18:01;28.10;77.90
27534;DHT22;14973;51.460;7.008;2022-09-03T12:23:29;27.70;78.70
27534;DHT22;14973;51.460;7.008;2022-09-03T12:25:55;27.60;78.90
27534;DHT22;14973;51.460;7.008;2022-09-03T12:28:22;27.30;79.50
27534;DHT22;14973;51.460;7.008;2022-09-03T12:30:49;27.20;79.70
27534;DHT22;14973;51.460;7.008;2022-09-03T12:33:19;27.10;79.70
27534;DHT22;14973;51.460;7.008;2022-09-03T12:35:57;27.00;80.30
27534;DHT22;14973;51.460;7.008;2022-09-03T12:38:23;27.00;80.20
27534;DHT22;14973;51.460;7.008;2022-09-03T12:40:49;26.90;80.60
27534;DHT22;14973;51.460;7.008;2022-09-03T12:43:15;26.80;81.10
27534;DHT22;14973;51.460;7.008;2022-09-03T12:45:42;26.80;80.70
27534;DHT22;14973;51.460;7.008;2022-09-03T12:48:15;26.90;80.80
27534;DHT22;14973;51.460;7.008;2022-09-03T12:50:42;27.00;80.50
27534;DHT22;14973;51.460;7.008;2022-09-03T12:53:08;27.10;80.10
27534;DHT22;14973;51.460;7.008;2022-09-03T12:55:35;27.10;80.00
27534;DHT22;14973;51.460;7.008;2022-09-03T12:58:05;27.10;80.20
27534;DHT22;14973;51.460;7.008;2022-09-03T13:00:33;27.10;79.20
27534;DHT22;14973;51.460;7.008;2022-09-03T13:03:09;26.90;79.90
27534;DHT22;14973;51.460;7.008;2022-09-03T13:05:41;27.00;80.00
27534;DHT22;14973;51.460;7.008;2022-09-03T13:08:09;27.10;79.90
27534;DHT22;14973;51.460;7.008;2022-09-03T13:10:38;27.00;80.30
27534;DHT22;14973;51.460;7.008;2022-09-03T13:13:16;27.10;80.80
27534;DHT22;14973;51.460;7.008;2022-09-03T13:15:54;27.20;81.40
27534;DHT22;14973;51.460;7.008;2022-09-03T13:31:27;27.60;81.70
27534;DHT22;14973;51.460;7.008;2022-09-03T13:34:02;27.50;81.90
27534;DHT22;14973;51.460;7.008;2022-09-03T13:36:30;27.60;81.80
27534;DHT22;14973;51.460;7.008;2022-09-03T13:40:05;27.70;81.90
27534;DHT22;14973;51.460;7.008;2022-09-03T13:42:15;27.40;81.90
27534;DHT22;14973;51.460;7.008;2022-09-03T13:44:46;27.10;81.70
27534;DHT22;14973;51.460;7.008;2022-09-03T13:47:22;27.00;83.00
27534;DHT22;14973;51.460;7.008;2022-09-03T13:49:52;27.00;83.50
27534;DHT22;14973;51.460;7.008;2022-09-03T13:52:42;27.20;82.60
27534;DHT22;14973;51.460;7.008;2022-09-03T13:55:12;27.20;82.90
27534;DHT22;14973;51.460;7.008;2022-09-03T13:57:48;27.00;83.10
27534;DHT22;14973;51.460;7.008;2022-09-03T14:00:30;27.10;83.10
27534;DHT22;14973;51.460;7.008;2022-09-03T14:03:02;27.00;83.50
27534;DHT22;14973;51.460;7.008;2022-09-03T14:05:52;26.60;84.60
27534;DHT22;14973;51.460;7.008;2022-09-03T14:10:51;26.60;84.80
27534;DHT22;14973;51.460;7.008;2022-09-03T14:13:29;26.70;85.00
27534;DHT22;14973;51.460;7.008;2022-09-03T14:18:58;27.00;85.20
27534;DHT22;14973;51.460;7.008;2022-09-03T14:21:38;27.10;85.00
27534;DHT22;14973;51.460;7.008;2022-09-03T14:26:31;26.90;85.70
27534;DHT22;14973;51.460;7.008;2022-09-03T14:29:19;26.70;86.30
27534;DHT22;14973;51.460;7.008;2022-09-03T14:31:54;26.50;86.80
27534;DHT22;14973;51.460;7.008;2022-09-03T14:34:28;26.70;86.80
27534;DHT22;14973;51.460;7.008;2022-09-03T14:39:53;26.70;87.30
27534;DHT22;14973;51.460;7.008;2022-09-03T14:45:14;26.20;88.60
27534;DHT22;14973;51.460;7.008;2022-09-03T14:50:37;26.30;88.60
27534;DHT22;14973;51.460;7.008;2022-09-03T14:52:59;26.70;89.00
27534;DHT22;14973;51.460;7.008;2022-09-03T14:55:37;27.00;87.90
27534;DHT22;14973;51.460;7.008;2022-09-03T15:03:16;27.30;87.10
27534;DHT22;14973;51.460;7.008;2022-09-03T15:08:21;27.40;87.10
27534;DHT22;14973;51.460;7.008;2022-09-03T15:10:54;27.50;86.90
27534;DHT22;14973;51.460;7.008;2022-09-03T15:14:07;27.50;86.90
27534;DHT22;14973;51.460;7.008;2022-09-03T15:19:02;27.50;87.00
27534;DHT22;14973;51.460;7.008;2022-09-03T15:21:38;27.40;87.60
27534;DHT22;14973;51.460;7.008;2022-09-03T15:24:09;27.30;88.10
27534;DHT22;14973;51.460;7.008;2022-09-03T15:26:47;27.10;88.50
27534;DHT22;14973;51.460;7.008;2022-09-03T15:31:47;27.20;88.30
27534;DHT22;14973;51.460;7.008;2022-09-03T15:36:53;27.10;88.90
27534;DHT22;14973;51.460;7.008;2022-09-03T15:39:21;27.10;88.70
27534;DHT22;14973;51.460;7.008;2022-09-03T15:42:06;27.00;89.10
27534;DHT22;14973;51.460;7.008;2022-09-03T15:44:35;26.90;89.60
27534;DHT22;14973;51.460;7.008;2022-09-03T15:50:02;26.70;89.70
27534;DHT22;14973;51.460;7.008;2022-09-03T15:52:40;26.60;89.90
27534;DHT22;14973;51.460;7.008;2022-09-03T15:57:47;26.50;89.90
27534;DHT22;14973;51.460;7.008;2022-09-03T16:00:17;26.50;89.80
27534;DHT22;14973;51.460;7.008;2022-09-03T16:02:45;26.40;90.10
27534;DHT22;14973;51.460;7.008;2022-09-03T16:07:48;26.60;89.90
27534;DHT22;14973;51.460;7.008;2022-09-03T16:10:19;26.70;89.80
27534;DHT22;14973;51.460;7.008;2022-09-03T16:15:22;26.80;88.30
27534;DHT22;14973;51.460;7.008;2022-09-03T16:18:11;26.80;89.80
27534;DHT22;14973;51.460;7.008;2022-09-03T16:20:43;26.70;89.10
27534;DHT22;14973;51.460;7.008;2022-09-03T16:25:54;26.90;89.10
27534;DHT22;14973;51.460;7.008;2022-09-03T16:28:58;26.80;88.90
27534;DHT22;14973;51.460;7.008;2022-09-03T16:36:26;26.40;90.00
27534;DHT22;14973;51.460;7.008;2022-09-03T16:41:44;26.10;90.20
27534;DHT22;14973;51.460;7.008;2022-09-03T16:52:04;26.10;91.50
27534;DHT22;14973;51.460;7.008;2022-09-03T16:54:37;26.10;91.70
27534;DHT22;14973;51.460;7.008;2022-09-03T17:00:04;26.10;92.10
27534;DHT22;14973;51.460;7.008;2022-09-03T17:10:34;25.70;92.90
27534;DHT22;14973;51.460;7.008;2022-09-03T17:15:48;25.60;93.40
27534;DHT22;14973;51.460;7.008;2022-09-03T17:23:30;25.10;94.80
27534;DHT22;14973;51.460;7.008;2022-09-03T17:31:08;24.80;95.70
27534;DHT22;14973;51.460;7.008;2022-09-03T17:33:56;24.80;96.20
27534;DHT22;14973;51.460;7.008;2022-09-03T17:36:27;24.70;96.10
27534;DHT22;14973;51.460;7.008;2022-09-03T17:49:42;24.40;97.80
27534;DHT22;14973;51.460;7.008;2022-09-03T17:52:28;24.20;99.00
27534;DHT22;14973;51.460;7.008;2022-09-03T17:54:57;24.10;99.90
27534;DHT22;14973;51.460;7.008;2022-09-03T17:57:45;23.90;99.90
27534;DHT22;14973;51.460;7.008;2022-09-03T18:00:10;23.80;99.90
27534;DHT22;14973;51.460;7.008;2022-09-03T18:03:03;23.70;99.90
27534;DHT22;14973;51.460;7.008;2022-09-03T18:08:23;23.30;99.90
27534;DHT22;14973;51.460;7.008;2022-09-03T18:16:06;22.70;99.90
27534;DHT22;14973;51.460;7.008;2022-09-03T18:18:35;22.50;99.90
27534;DHT22;14973;51.460;7.008;2022-09-03T18:21:04;22.40;99.90
27534;DHT22;14973;51.460;7.008;2022-09-03T18:26:58;22.10;99.90
27534;DHT22;14973;51.460;7.008;2022-09-03T18:29:44;22.00;99.90
27534;DHT22;14973;51.460;7.008;2022-09-03T18:32:29;21.90;99.90
27534;DHT22;14973;51.460;7.008;2022-09-03T18:35:14;21.80;99.90
27534;DHT22;14973;51.460;7.008;2022-09-03T18:37:58;21.70;99.90
27534;DHT22;14973;51.460;7.008;2022-09-03T18:40:47;21.60;99.90
27534;DHT22;14973;51.460;7.008;2022-09-03T18:46:27;21.50;99.90
27534;DHT22;14973;51.460;7.008;2022-09-03T18:52:20;21.50;99.90
27534;DHT22;14973;51.460;7.008;2022-09-03T19:00:55;21.50;99.90
27534;DHT22;14973;51.460;7.008;2022-09-03T19:06:46;21.40;99.90
27534;DHT22;14973;51.460;7.008;2022-09-03T19:09:44;21.30;99.90
27534;DHT22;14973;51.460;7.008;2022-09-03T19:15:26;21.20;99.90
27534;DHT22;14973;51.460;7.008;2022-09-03T19:21:30;21.20;99.90
27534;DHT22;14973;51.460;7.008;2022-09-03T19:24:17;21.10;99.90
27534;DHT22;14973;51.460;7.008;2022-09-03T19:27:13;21.10;99.90
27534;DHT22;14973;51.460;7.008;2022-09-03T19:30:04;21.00;99.90
27534;DHT22;14973;51.460;7.008;2022-09-03T19:32:52;21.00;99.90
27534;DHT22;14973;51.460;7.008;2022-09-03T19:35:43;20.90;99.90
27534;DHT22;14973;51.460;7.008;2022-09-03T19:47:03;20.60;99.90
27534;DHT22;14973;51.460;7.008;2022-09-03T19:49:50;20.60;99.90
27534;DHT22;14973;51.460;7.008;2022-09-03T19:55:46;20.50;99.90
27534;DHT22;14973;51.460;7.008;2022-09-03T19:58:31;20.40;99.90
27534;DHT22;14973;51.460;7.008;2022-09-03T20:01:15;20.30;99.90
27534;DHT22;14973;51.460;7.008;2022-09-03T20:04:03;20.30;99.90
27534;DHT22;14973;51.460;7.008;2022-09-03T20:06:49;20.20;99.90
27534;DHT22;14973;51.460;7.008;2022-09-03T20:09:34;20.20;99.90
27534;DHT22;14973;51.460;7.008;2022-09-03T20:12:21;20.20;99.90
27534;DHT22;14973;51.460;7.008;2022-09-03T20:14:49;20.10;99.90
27534;DHT22;14973;51.460;7.008;2022-09-03T20:22:42;19.90;99.90
27534;DHT22;14973;51.460;7.008;2022-09-03T20:28:05;19.70;99.90